createdAt,value
2023-04-10T00:00:27.653Z,4.100037
2023-04-10T00:01:37.305Z,4.049683
2023-04-10T00:02:45.147Z,4.059753
2023-04-10T00:03:54.912Z,4.059753
2023-04-10T00:05:02.450Z,4.079895
2023-04-10T00:06:11.945Z,4.100037
2023-04-10T00:07:21.589Z,4.120178
2023-04-10T00:08:31.220Z,4.170532
2023-04-10T00:09:38.867Z,4.190674
2023-04-10T00:10:48.609Z,4.230957
2023-04-10T00:11:57.243Z,4.230957
2023-04-10T00:13:05.903Z,4.281311
2023-04-10T00:14:15.541Z,4.281311
2023-04-10T00:15:23.212Z,4.301453
2023-04-10T00:16:32.971Z,4.311523
2023-04-10T00:17:42.564Z,4.311523
2023-04-10T00:18:50.177Z,4.301453
2023-04-10T00:19:59.826Z,4.230957
2023-04-10T00:21:08.523Z,4.160461
2023-04-10T00:22:18.162Z,4.100037
2023-04-10T00:23:27.809Z,4.079895
2023-04-10T00:24:36.463Z,4.079895
2023-04-10T00:25:46.136Z,4.009399
2023-04-10T00:26:54.781Z,3.918762
2023-04-10T00:28:02.453Z,3.868408
2023-04-10T00:29:12.109Z,3.797913
2023-04-10T00:30:18.765Z,3.727417
2023-04-10T00:31:27.474Z,3.687134
2023-04-10T00:32:37.205Z,3.626709
2023-04-10T00:33:45.848Z,3.586426
2023-04-10T00:34:55.569Z,3.526001
2023-04-10T00:36:04.323Z,3.526001
2023-04-10T00:37:12.898Z,3.495789
2023-04-10T00:38:22.563Z,3.435364
2023-04-10T00:39:30.207Z,3.415222
2023-04-10T00:40:39.883Z,3.415222
2023-04-10T00:41:49.552Z,3.415222
2023-04-10T00:42:58.235Z,3.395081
2023-04-10T00:44:07.881Z,3.405151
2023-04-10T00:45:16.535Z,3.374939
2023-04-10T00:46:25.290Z,3.314514
2023-04-10T00:47:34.904Z,3.294373
2023-04-10T00:48:43.710Z,3.284302
2023-04-10T00:49:53.210Z,3.324585
2023-04-10T00:51:02.898Z,3.324585
2023-04-10T00:52:11.539Z,3.374939
2023-04-10T00:53:21.217Z,3.395081
2023-04-10T00:54:29.900Z,3.435364
2023-04-10T00:55:37.592Z,3.415222
2023-04-10T00:56:47.241Z,3.374939
2023-04-10T00:57:54.905Z,3.324585
2023-04-10T00:59:05.202Z,3.314514
2023-04-10T01:00:12.192Z,3.26416
2023-04-10T01:01:19.895Z,3.233948
2023-04-10T01:02:29.741Z,3.213806
2023-04-10T01:03:38.498Z,3.213806
2023-04-10T01:04:45.942Z,3.193665
2023-04-10T01:05:54.564Z,3.183594
2023-04-10T01:07:02.229Z,3.13324
2023-04-10T01:08:10.876Z,3.103027
2023-04-10T01:09:20.530Z,3.072815
2023-04-10T01:10:30.233Z,3.052673
2023-04-10T01:11:39.907Z,3.042603
2023-04-10T01:12:48.581Z,3.082886
2023-04-10T01:13:56.237Z,3.042603
2023-04-10T01:15:05.895Z,3.052673
2023-04-10T01:16:14.601Z,3.042603
2023-04-10T01:17:23.307Z,3.032532
2023-04-10T01:18:32.945Z,3.072815
2023-04-10T01:19:40.596Z,3.103027
2023-04-10T01:20:50.281Z,3.072815
2023-04-10T01:21:59.911Z,3.042603
2023-04-10T01:23:08.566Z,3.103027
2023-04-10T01:24:18.342Z,3.032532
2023-04-10T01:25:26.024Z,3.032532
2023-04-10T01:26:35.691Z,2.972107
2023-04-10T01:27:45.365Z,2.982178
2023-04-10T01:28:53.005Z,2.931824
2023-04-10T01:30:02.675Z,2.931824
2023-04-10T01:31:11.388Z,2.972107
2023-04-10T01:32:19.117Z,2.982178
2023-04-10T01:33:28.659Z,3.002319
2023-04-10T01:34:36.339Z,3.002319
2023-04-10T01:35:45.011Z,2.972107
2023-04-10T01:36:54.689Z,2.972107
2023-04-10T01:38:04.324Z,2.931824
2023-04-10T01:39:13.974Z,2.931824
2023-04-10T01:40:23.631Z,2.921753
2023-04-10T01:41:32.286Z,2.921753
2023-04-10T01:42:42.686Z,2.891541
2023-04-10T01:43:50.720Z,2.871399
2023-04-10T01:44:59.362Z,2.871399
2023-04-10T01:46:10.010Z,2.861328
2023-04-10T01:47:19.625Z,2.821045
2023-04-10T01:48:29.284Z,2.790833
2023-04-10T01:49:37.932Z,2.750549
2023-04-10T01:50:47.615Z,2.750549
2023-04-10T01:51:57.340Z,2.750549
2023-04-10T01:53:06.999Z,2.690125
2023-04-10T01:54:16.629Z,2.649841
2023-04-10T01:55:26.281Z,2.639771
2023-04-10T01:56:35.004Z,2.619629
2023-04-10T01:57:44.650Z,2.569275
2023-04-10T01:58:54.364Z,2.528992
2023-04-10T02:00:03.049Z,2.569275
2023-04-10T02:01:19.293Z,2.559204
2023-04-10T02:02:23.470Z,2.539062
2023-04-10T02:03:33.150Z,2.559204
2023-04-10T02:04:42.718Z,2.539062
2023-04-10T02:05:51.416Z,2.528992
2023-04-10T02:07:00.117Z,2.528992
2023-04-10T02:08:09.796Z,2.539062
2023-04-10T02:09:18.488Z,2.569275
2023-04-10T02:10:27.233Z,2.528992
2023-04-10T02:11:36.929Z,2.539062
2023-04-10T02:12:44.577Z,2.569275
2023-04-10T02:13:54.490Z,2.569275
2023-04-10T02:15:02.931Z,2.559204
2023-04-10T02:16:11.638Z,2.569275
2023-04-10T02:17:21.302Z,2.539062
2023-04-10T02:18:30.960Z,2.488708
2023-04-10T02:19:39.634Z,2.528992
2023-04-10T02:20:49.394Z,2.488708
2023-04-10T02:21:58.111Z,2.458496
2023-04-10T02:23:07.807Z,2.388
2023-04-10T02:24:17.480Z,2.37793
2023-04-10T02:25:26.142Z,2.307434
2023-04-10T02:26:35.836Z,2.317505
2023-04-10T02:27:44.503Z,2.327576
2023-04-10T02:28:53.157Z,2.37793
2023-04-10T02:30:02.824Z,2.418213
2023-04-10T02:31:10.577Z,2.357788
2023-04-10T02:32:20.195Z,2.347717
2023-04-10T02:33:28.882Z,2.317505
2023-04-10T02:34:36.568Z,2.287292
2023-04-10T02:35:46.284Z,2.247009
2023-04-10T02:36:55.990Z,2.247009
2023-04-10T02:38:05.637Z,2.196655
2023-04-10T02:39:16.314Z,2.176514
2023-04-10T02:40:23.959Z,2.13623
2023-04-10T02:41:33.628Z,2.095947
2023-04-10T02:42:43.341Z,2.075806
2023-04-10T02:43:51.175Z,2.035522
2023-04-10T02:45:00.682Z,1.985168
2023-04-10T02:46:08.348Z,1.985168
2023-04-10T02:47:17.054Z,1.995239
2023-04-10T02:48:25.712Z,1.965027
2023-04-10T02:49:34.387Z,1.965027
2023-04-10T02:50:44.059Z,1.995239
2023-04-10T02:51:52.774Z,2.035522
2023-04-10T02:53:01.535Z,2.065735
2023-04-10T02:54:11.296Z,2.095947
2023-04-10T02:55:19.985Z,2.12616
2023-04-10T02:56:28.643Z,2.12616
2023-04-10T02:57:38.341Z,2.166443
2023-04-10T02:58:47.007Z,2.12616
2023-04-10T02:59:56.656Z,2.095947
2023-04-10T03:01:05.363Z,2.075806
2023-04-10T03:02:14.321Z,2.035522
2023-04-10T03:03:23.807Z,2.055664
2023-04-10T03:04:32.415Z,1.985168
2023-04-10T03:05:42.037Z,1.985168
2023-04-10T03:06:51.891Z,2.015381
2023-04-10T03:08:00.562Z,2.015381
2023-04-10T03:09:10.225Z,2.015381
2023-04-10T03:10:19.886Z,2.035522
2023-04-10T03:11:27.586Z,2.015381
2023-04-10T03:12:37.253Z,1.995239
2023-04-10T03:13:45.916Z,1.995239
2023-04-10T03:14:54.576Z,1.965027
2023-04-10T03:16:04.254Z,1.944885
2023-04-10T03:17:12.917Z,1.914673
2023-04-10T03:18:22.580Z,1.894531
2023-04-10T03:19:31.255Z,1.914673
2023-04-10T03:20:38.913Z,1.924744
2023-04-10T03:21:48.583Z,1.88446
2023-04-10T03:22:57.224Z,1.924744
2023-04-10T03:24:06.907Z,1.894531
2023-04-10T03:25:17.638Z,1.924744
2023-04-10T03:26:27.297Z,1.88446
2023-04-10T03:27:37.001Z,1.914673
2023-04-10T03:28:45.637Z,1.914673
2023-04-10T03:29:54.332Z,1.914673
2023-04-10T03:31:04.035Z,1.88446
2023-04-10T03:32:12.698Z,1.894531
2023-04-10T03:33:21.385Z,1.854248
2023-04-10T03:34:31.050Z,1.813965
2023-04-10T03:35:38.751Z,1.783752
2023-04-10T03:36:48.379Z,1.763611
2023-04-10T03:37:57.066Z,1.713257
2023-04-10T03:39:05.755Z,1.672974
2023-04-10T03:40:15.440Z,1.62262
2023-04-10T03:41:25.377Z,1.63269
2023-04-10T03:42:33.794Z,1.62262
2023-04-10T03:43:43.505Z,1.63269
2023-04-10T03:44:52.153Z,1.683044
2023-04-10T03:46:01.869Z,1.672974
2023-04-10T03:47:11.566Z,1.672974
2023-04-10T03:48:19.212Z,1.672974
2023-04-10T03:49:28.902Z,1.602478
2023-04-10T03:50:37.562Z,1.602478
2023-04-10T03:51:46.251Z,1.662903
2023-04-10T03:52:55.952Z,1.683044
2023-04-10T03:54:05.595Z,1.703186
2023-04-10T03:55:15.298Z,1.683044
2023-04-10T03:56:23.961Z,1.713257
2023-04-10T03:57:33.650Z,1.733398
2023-04-10T03:58:43.335Z,1.703186
2023-04-10T03:59:50.048Z,1.713257
2023-04-10T04:00:59.704Z,1.733398
2023-04-10T04:02:09.405Z,1.713257
2023-04-10T04:03:19.276Z,1.703186
2023-04-10T04:04:26.892Z,1.683044
2023-04-10T04:05:36.539Z,1.672974
2023-04-10T04:06:45.214Z,1.672974
2023-04-10T04:07:54.944Z,1.703186
2023-04-10T04:09:04.662Z,1.703186
2023-04-10T04:10:14.338Z,1.703186
2023-04-10T04:11:23.002Z,1.713257
2023-04-10T04:12:32.691Z,1.733398
2023-04-10T04:13:42.434Z,1.703186
2023-04-10T04:14:51.113Z,1.713257
2023-04-10T04:15:59.834Z,1.703186
2023-04-10T04:17:08.604Z,1.713257
2023-04-10T04:18:18.389Z,1.683044
2023-04-10T04:19:26.032Z,1.662903
2023-04-10T04:20:35.721Z,1.63269
2023-04-10T04:21:44.424Z,1.662903
2023-04-10T04:22:54.126Z,1.602478
2023-04-10T04:24:03.847Z,1.662903
2023-04-10T04:25:12.502Z,1.63269
2023-04-10T04:26:21.209Z,1.713257
2023-04-10T04:27:30.915Z,1.743469
2023-04-10T04:28:38.613Z,1.743469
2023-04-10T04:29:48.347Z,1.743469
2023-04-10T04:30:58.008Z,1.733398
2023-04-10T04:32:07.709Z,1.733398
2023-04-10T04:33:17.447Z,1.733398
2023-04-10T04:34:26.124Z,1.672974
2023-04-10T04:35:34.840Z,1.63269
2023-04-10T04:36:44.504Z,1.592407
2023-04-10T04:37:52.239Z,1.592407
2023-04-10T04:39:01.949Z,1.592407
2023-04-10T04:40:11.594Z,1.62262
2023-04-10T04:41:20.724Z,1.63269
2023-04-10T04:42:28.902Z,1.602478
2023-04-10T04:43:36.625Z,1.662903
2023-04-10T04:44:45.259Z,1.713257
2023-04-10T04:45:54.984Z,1.63269
2023-04-10T04:47:02.666Z,1.662903
2023-04-10T04:48:12.410Z,1.683044
2023-04-10T04:49:22.063Z,1.62262
2023-04-10T04:50:29.709Z,1.552124
2023-04-10T04:51:39.405Z,1.552124
2023-04-10T04:52:49.050Z,1.602478
2023-04-10T04:53:57.849Z,1.582336
2023-04-10T04:55:07.568Z,1.62262
2023-04-10T04:56:16.323Z,1.592407
2023-04-10T04:57:26.006Z,1.602478
2023-04-10T04:58:35.705Z,1.62262
2023-04-10T04:59:45.390Z,1.602478
2023-04-10T05:00:55.194Z,1.602478
2023-04-10T05:02:02.896Z,1.683044
2023-04-10T05:03:12.635Z,1.743469
2023-04-10T05:04:22.329Z,1.773682
2023-04-10T05:05:29.917Z,1.844177
2023-04-10T05:06:39.679Z,2.055664
2023-04-10T05:07:47.348Z,2.196655
2023-04-10T05:08:56.282Z,2.307434
2023-04-10T05:10:05.778Z,2.287292
2023-04-10T05:11:13.515Z,2.347717
2023-04-10T05:12:22.174Z,2.277222
2023-04-10T05:13:31.905Z,2.247009
2023-04-10T05:14:39.557Z,2.12616
2023-04-10T05:15:49.296Z,2.12616
2023-04-10T05:16:57.930Z,2.075806
2023-04-10T05:18:06.621Z,2.106018
2023-04-10T05:19:16.342Z,2.247009
2023-04-10T05:20:24.981Z,2.357788
2023-04-10T05:21:34.631Z,2.458496
2023-04-10T05:22:44.314Z,2.458496
2023-04-10T05:23:53.036Z,2.438354
2023-04-10T05:25:02.759Z,2.528992
2023-04-10T05:26:12.385Z,2.619629
2023-04-10T05:27:22.041Z,2.639771
2023-04-10T05:28:31.743Z,2.619629
2023-04-10T05:29:40.407Z,2.619629
2023-04-10T05:30:50.102Z,2.649841
2023-04-10T05:31:59.747Z,2.690125
2023-04-10T05:33:07.399Z,2.690125
2023-04-10T05:34:17.091Z,2.720337
2023-04-10T05:35:25.764Z,2.720337
2023-04-10T05:36:34.444Z,2.770691
2023-04-10T05:37:43.089Z,2.710266
2023-04-10T05:38:51.840Z,2.770691
2023-04-10T05:40:01.471Z,2.831116
2023-04-10T05:41:11.128Z,2.821045
2023-04-10T05:42:20.750Z,2.861328
2023-04-10T05:43:29.480Z,2.871399
2023-04-10T05:44:38.154Z,2.871399
2023-04-10T05:45:45.828Z,2.931824
2023-04-10T05:46:55.547Z,2.951965
2023-04-10T05:48:04.225Z,2.901611
2023-04-10T05:49:12.898Z,2.951965
2023-04-10T05:50:23.092Z,2.921753
2023-04-10T05:51:31.239Z,3.042603
2023-04-10T05:52:40.934Z,3.13324
2023-04-10T05:53:50.624Z,3.143311
2023-04-10T05:54:58.281Z,3.13324
2023-04-10T05:56:07.991Z,3.233948
2023-04-10T05:57:16.610Z,3.223877
2023-04-10T05:58:26.269Z,3.213806
2023-04-10T05:59:35.946Z,3.233948
2023-04-10T06:00:44.658Z,3.294373
2023-04-10T06:01:53.351Z,3.344727
2023-04-10T06:03:03.103Z,3.465576
2023-04-10T06:04:10.924Z,3.505859
2023-04-10T06:05:19.468Z,3.586426
2023-04-10T06:06:29.171Z,3.626709
2023-04-10T06:07:36.852Z,3.697205
2023-04-10T06:08:46.561Z,3.697205
2023-04-10T06:09:56.223Z,3.697205
2023-04-10T06:11:02.897Z,3.697205
2023-04-10T06:12:12.543Z,3.7677
2023-04-10T06:13:20.263Z,3.878479
2023-04-10T06:14:28.975Z,3.989258
2023-04-10T06:15:38.706Z,4.130249
2023-04-10T06:16:47.379Z,4.241028
2023-04-10T06:17:57.107Z,4.301453
2023-04-10T06:19:05.766Z,4.341736
2023-04-10T06:20:13.607Z,4.382019
2023-04-10T06:21:23.197Z,4.442444
2023-04-10T06:22:30.850Z,4.442444
2023-04-10T06:23:40.518Z,4.563293
2023-04-10T06:24:50.282Z,4.623718
2023-04-10T06:25:57.963Z,4.684143
2023-04-10T06:27:07.677Z,4.744568
2023-04-10T06:28:17.393Z,4.77478
2023-04-10T06:29:27.110Z,4.835205
2023-04-10T06:30:36.799Z,4.89563
2023-04-10T06:31:45.465Z,4.956055
2023-04-10T06:32:54.243Z,5.046692
2023-04-10T06:34:03.844Z,5.117188
2023-04-10T06:35:12.611Z,5.298462
2023-04-10T06:36:22.317Z,5.328674
2023-04-10T06:37:30.987Z,5.429382
2023-04-10T06:38:38.806Z,5.479736
2023-04-10T06:39:48.500Z,5.499878
2023-04-10T06:40:57.224Z,5.691223
2023-04-10T06:42:05.864Z,5.791931
2023-04-10T06:43:15.553Z,5.842285
2023-04-10T06:44:25.273Z,5.90271
2023-04-10T06:45:34.941Z,6.094055
2023-04-10T06:46:43.660Z,6.194763
2023-04-10T06:47:52.327Z,6.416321
2023-04-10T06:49:01.973Z,6.597595
2023-04-10T06:50:09.759Z,6.768799
2023-04-10T06:51:18.385Z,6.839294
2023-04-10T06:52:28.062Z,7.050781
2023-04-10T06:53:36.748Z,7.232056
2023-04-10T06:54:46.496Z,7.393188
2023-04-10T06:55:55.179Z,7.433472
2023-04-10T06:57:04.850Z,7.614746
2023-04-10T06:58:14.479Z,7.876587
2023-04-10T06:59:23.209Z,8.128357
2023-04-10T07:00:31.892Z,8.370056
2023-04-10T07:01:41.546Z,8.631897
2023-04-10T07:02:49.274Z,8.79303
2023-04-10T07:03:58.943Z,8.994446
2023-04-10T07:05:07.547Z,9.095154
2023-04-10T07:06:17.221Z,9.306641
2023-04-10T07:07:26.873Z,9.387207
2023-04-10T07:08:34.570Z,9.457703
2023-04-10T07:09:43.269Z,9.538269
2023-04-10T07:10:52.907Z,9.457703
2023-04-10T07:12:02.560Z,9.407349
2023-04-10T07:13:12.271Z,9.467773
2023-04-10T07:14:21.925Z,9.608765
2023-04-10T07:15:30.652Z,9.719543
2023-04-10T07:16:40.436Z,9.820251
2023-04-10T07:17:48.103Z,9.951172
2023-04-10T07:18:58.707Z,10.172729
2023-04-10T07:20:08.403Z,10.223083
2023-04-10T07:21:17.060Z,9.890747
2023-04-10T07:22:26.751Z,10.132446
2023-04-10T07:23:36.404Z,10.253296
2023-04-10T07:24:44.109Z,10.354004
2023-04-10T07:25:53.758Z,10.625916
2023-04-10T07:27:00.408Z,10.787048
2023-04-10T07:28:10.058Z,11.038818
2023-04-10T07:29:19.735Z,11.079102
2023-04-10T07:30:28.450Z,11.149597
2023-04-10T07:31:38.176Z,11.18988
2023-04-10T07:32:47.929Z,11.230164
2023-04-10T07:33:55.495Z,11.361084
2023-04-10T07:35:05.191Z,11.622925
2023-04-10T07:36:13.889Z,11.904907
2023-04-10T07:37:23.603Z,11.995544
2023-04-10T07:38:33.261Z,11.985474
2023-04-10T07:39:41.908Z,11.502075
2023-04-10T07:40:51.616Z,11.17981
2023-04-10T07:42:01.272Z,10.968323
2023-04-10T07:43:08.929Z,10.80719
2023-04-10T07:44:18.647Z,10.746765
2023-04-10T07:45:27.403Z,10.93811
2023-04-10T07:46:35.999Z,11.270447
2023-04-10T07:47:45.660Z,11.361084
2023-04-10T07:48:55.863Z,11.18988
2023-04-10T07:50:05.047Z,11.401367
2023-04-10T07:51:13.752Z,11.44165
2023-04-10T07:52:23.406Z,11.592712
2023-04-10T07:53:33.113Z,11.773987
2023-04-10T07:54:41.804Z,11.81427
2023-04-10T07:55:50.477Z,11.834412
2023-04-10T07:57:00.190Z,11.723633
2023-04-10T07:58:07.877Z,11.68335
2023-04-10T07:59:17.526Z,11.93512
2023-04-10T08:00:27.183Z,11.995544
2023-04-10T08:01:35.921Z,12.086182
2023-04-10T08:02:45.604Z,12.207031
2023-04-10T08:03:55.396Z,12.086182
2023-04-10T08:05:06.440Z,12.126465
2023-04-10T08:06:16.239Z,12.398376
2023-04-10T08:07:25.912Z,12.750854
2023-04-10T08:08:34.554Z,13.093262
2023-04-10T08:09:44.230Z,13.405457
2023-04-10T08:10:52.893Z,13.747864
2023-04-10T08:12:02.564Z,13.808289
2023-04-10T08:13:12.249Z,13.969421
2023-04-10T08:14:21.912Z,13.959351
2023-04-10T08:15:31.622Z,13.989563
2023-04-10T08:16:40.503Z,14.140625
2023-04-10T08:17:48.102Z,14.150696
2023-04-10T08:18:57.900Z,14.261475
2023-04-10T08:20:05.617Z,14.372253
2023-04-10T08:21:14.308Z,14.291687
2023-04-10T08:22:23.002Z,13.959351
2023-04-10T08:23:31.648Z,13.677368
2023-04-10T08:24:41.321Z,13.405457
2023-04-10T08:25:49.971Z,13.717651
2023-04-10T08:26:58.672Z,13.929138
2023-04-10T08:28:08.389Z,14.180908
2023-04-10T08:29:16.049Z,13.848572
2023-04-10T08:30:24.792Z,14.0802
2023-04-10T08:31:34.504Z,14.412537
2023-04-10T08:32:44.148Z,14.684448
2023-04-10T08:33:54.081Z,14.906006
2023-04-10T08:35:03.495Z,15.08728
2023-04-10T08:36:12.326Z,15.067139
2023-04-10T08:37:21.977Z,14.966431
2023-04-10T08:38:30.701Z,14.0802
2023-04-10T08:39:39.396Z,13.435669
2023-04-10T08:40:49.068Z,13.032837
2023-04-10T08:41:56.789Z,13.153687
2023-04-10T08:43:06.473Z,13.153687
2023-04-10T08:44:16.150Z,13.183899
2023-04-10T08:45:24.824Z,13.455811
2023-04-10T08:46:34.557Z,13.919067
2023-04-10T08:47:42.249Z,14.483032
2023-04-10T08:48:50.880Z,14.805298
2023-04-10T08:50:00.883Z,15.147705
2023-04-10T08:51:15.478Z,15.349121
2023-04-10T08:52:19.311Z,15.4599
2023-04-10T08:53:28.051Z,15.610962
2023-04-10T08:54:35.967Z,15.177917
2023-04-10T08:55:45.697Z,14.885864
2023-04-10T08:56:54.382Z,14.916077
2023-04-10T08:58:03.196Z,15.137634
2023-04-10T08:59:12.846Z,15.4599
2023-04-10T09:00:23.285Z,15.701599
2023-04-10T09:01:30.291Z,15.84259
2023-04-10T09:02:40.868Z,15.903015
2023-04-10T09:03:47.652Z,15.953369
2023-04-10T09:04:57.285Z,15.943298
2023-04-10T09:06:06.911Z,15.550537
2023-04-10T09:07:16.592Z,14.442749
2023-04-10T09:08:26.300Z,14.150696
2023-04-10T09:09:33.966Z,13.898926
2023-04-10T09:10:43.609Z,14.029846
2023-04-10T09:11:52.299Z,14.483032
2023-04-10T09:13:00.945Z,14.916077
2023-04-10T09:14:10.603Z,15.359192
2023-04-10T09:15:19.246Z,15.651245
2023-04-10T09:16:27.975Z,15.822449
2023-04-10T09:17:37.640Z,15.822449
2023-04-10T09:18:46.369Z,16.134644
2023-04-10T09:19:56.008Z,16.34613
2023-04-10T09:21:05.717Z,16.5979
2023-04-10T09:22:14.458Z,16.869812
2023-04-10T09:23:24.153Z,17.151794
2023-04-10T09:24:33.088Z,17.272644
2023-04-10T09:25:41.462Z,16.688538
2023-04-10T09:26:51.134Z,16.013794
2023-04-10T09:27:59.797Z,16.164856
2023-04-10T09:29:09.473Z,16.5979
2023-04-10T09:30:17.175Z,16.809387
2023-04-10T09:31:24.911Z,17.061157
2023-04-10T09:32:35.523Z,17.121582
2023-04-10T09:33:43.181Z,17.161865
2023-04-10T09:34:51.899Z,17.453918
2023-04-10T09:36:00.649Z,17.786255
2023-04-10T09:37:09.296Z,18.078308
2023-04-10T09:38:18.927Z,17.947388
2023-04-10T09:39:27.603Z,17.776184
2023-04-10T09:40:36.313Z,17.514343
2023-04-10T09:41:46.030Z,16.607971
2023-04-10T09:42:53.686Z,16.507263
2023-04-10T09:44:02.414Z,16.859741
2023-04-10T09:45:12.049Z,17.393494
2023-04-10T09:46:20.696Z,17.84668
2023-04-10T09:47:30.449Z,17.645264
2023-04-10T09:48:39.084Z,17.715759
2023-04-10T09:49:47.828Z,17.866821
2023-04-10T09:50:57.500Z,18.108521
2023-04-10T09:52:06.224Z,17.967529
2023-04-10T09:53:15.973Z,17.967529
2023-04-10T09:54:25.647Z,18.038025
2023-04-10T09:55:34.339Z,18.219299
2023-04-10T09:56:43.991Z,18.279724
2023-04-10T09:57:52.698Z,18.471069
2023-04-10T09:59:01.405Z,18.652344
2023-04-10T10:00:10.048Z,18.450928
2023-04-10T10:01:19.846Z,18.380432
2023-04-10T10:02:28.715Z,18.370361
2023-04-10T10:03:37.284Z,18.340149
2023-04-10T10:04:46.233Z,18.471069
2023-04-10T10:05:53.861Z,18.430786
2023-04-10T10:07:03.574Z,18.179016
2023-04-10T10:08:12.343Z,18.400574
2023-04-10T10:09:21.014Z,18.632202
2023-04-10T10:10:30.658Z,18.73291
2023-04-10T10:11:38.417Z,18.98468
2023-04-10T10:12:48.141Z,19.075317
2023-04-10T10:13:56.804Z,18.813477
2023-04-10T10:15:05.468Z,17.816467
2023-04-10T10:16:15.191Z,16.809387
2023-04-10T10:17:22.919Z,16.607971
2023-04-10T10:18:32.549Z,16.889954
2023-04-10T10:19:42.235Z,17.333069
2023-04-10T10:20:49.913Z,16.869812
2023-04-10T10:21:59.593Z,16.557617
2023-04-10T10:23:09.347Z,16.567688
2023-04-10T10:24:19.000Z,17.010803
2023-04-10T10:25:28.697Z,17.494202
2023-04-10T10:26:37.328Z,17.937317
2023-04-10T10:27:46.993Z,18.158875
2023-04-10T10:28:57.296Z,18.279724
2023-04-10T10:30:08.664Z,18.561707
2023-04-10T10:31:15.990Z,18.622131
2023-04-10T10:32:25.651Z,18.471069
2023-04-10T10:33:34.378Z,18.199158
2023-04-10T10:34:44.046Z,18.289795
2023-04-10T10:35:53.708Z,18.128662
2023-04-10T10:37:02.353Z,18.380432
2023-04-10T10:38:12.031Z,18.682556
2023-04-10T10:39:20.703Z,19.024963
2023-04-10T10:40:30.398Z,19.186096
2023-04-10T10:41:40.110Z,19.327087
2023-04-10T10:42:49.774Z,19.286804
2023-04-10T10:43:59.429Z,19.256592
2023-04-10T10:45:07.103Z,19.266663
2023-04-10T10:46:15.763Z,19.468079
2023-04-10T10:47:25.419Z,19.699707
2023-04-10T10:48:34.074Z,19.891052
2023-04-10T10:49:43.732Z,19.86084
2023-04-10T10:50:52.394Z,19.880981
2023-04-10T10:52:00.074Z,19.840698
2023-04-10T10:53:09.755Z,19.820557
2023-04-10T10:54:19.426Z,19.880981
2023-04-10T10:55:29.121Z,20.042114
2023-04-10T10:56:38.776Z,20.142822
2023-04-10T10:57:47.516Z,20.193176
2023-04-10T10:58:57.291Z,19.840698
2023-04-10T11:00:04.809Z,19.790344
2023-04-10T11:01:12.490Z,18.964539
2023-04-10T11:02:22.193Z,18.35022
2023-04-10T11:03:31.055Z,18.501282
2023-04-10T11:04:40.527Z,18.259583
2023-04-10T11:05:50.184Z,18.501282
2023-04-10T11:06:57.825Z,18.531494
2023-04-10T11:08:07.523Z,18.73291
2023-04-10T11:09:16.168Z,19.115601
2023-04-10T11:10:24.826Z,19.286804
2023-04-10T11:11:35.467Z,19.337158
2023-04-10T11:12:43.120Z,19.578857
2023-04-10T11:13:51.824Z,19.437866
2023-04-10T11:15:01.456Z,18.662415
2023-04-10T11:16:10.122Z,18.742981
2023-04-10T11:17:19.799Z,18.924255
2023-04-10T11:18:28.451Z,18.904114
2023-04-10T11:19:36.132Z,19.216309
2023-04-10T11:20:44.788Z,19.689636
2023-04-10T11:21:53.495Z,19.840698
2023-04-10T11:23:02.168Z,20.042114
2023-04-10T11:24:11.843Z,20.223389
2023-04-10T11:25:20.555Z,19.629211
2023-04-10T11:26:30.283Z,18.803406
2023-04-10T11:27:38.951Z,17.897034
2023-04-10T11:28:46.685Z,18.289795
2023-04-10T11:29:56.379Z,18.894043
2023-04-10T11:31:06.014Z,19.286804
2023-04-10T11:32:15.689Z,18.501282
2023-04-10T11:33:25.372Z,18.09845
2023-04-10T11:34:35.055Z,18.662415
2023-04-10T11:35:44.759Z,19.206238
2023-04-10T11:36:53.410Z,19.699707
2023-04-10T11:38:02.061Z,20.042114
2023-04-10T11:39:11.775Z,20.042114
2023-04-10T11:40:20.456Z,20.36438
2023-04-10T11:41:29.114Z,20.575867
2023-04-10T11:42:38.928Z,20.928345
2023-04-10T11:43:46.585Z,20.817566
2023-04-10T11:44:56.265Z,20.777283
2023-04-10T11:46:04.975Z,21.24054
2023-04-10T11:47:13.700Z,21.37146
2023-04-10T11:48:23.386Z,21.834717
2023-04-10T11:49:31.074Z,22.056274
2023-04-10T11:50:38.714Z,22.12677
2023-04-10T11:51:48.438Z,22.136841
2023-04-10T11:52:57.110Z,22.348328
2023-04-10T11:54:06.791Z,22.146912
2023-04-10T11:55:16.498Z,22.388611
2023-04-10T11:56:25.210Z,22.801514
2023-04-10T11:57:34.984Z,23.123779
2023-04-10T11:58:44.675Z,23.536682
2023-04-10T11:59:52.407Z,23.456116
2023-04-10T12:01:02.061Z,23.315125
2023-04-10T12:02:09.863Z,22.982788
2023-04-10T12:03:18.504Z,23.204346
2023-04-10T12:04:28.283Z,23.023071
2023-04-10T12:05:35.740Z,20.898132
2023-04-10T12:06:44.391Z,20.646362
2023-04-10T12:07:54.038Z,20.505371
2023-04-10T12:09:03.735Z,20.404663
2023-04-10T12:10:13.434Z,20.444946
2023-04-10T12:11:22.054Z,20.132751
2023-04-10T12:12:29.816Z,20.36438
2023-04-10T12:13:39.508Z,20.807495
2023-04-10T12:14:47.174Z,21.351318
2023-04-10T12:15:56.912Z,21.391602
2023-04-10T12:17:06.484Z,20.918274
2023-04-10T12:18:15.173Z,20.928345
2023-04-10T12:19:24.875Z,21.452026
2023-04-10T12:20:33.560Z,22.066345
2023-04-10T12:21:42.249Z,22.479248
2023-04-10T12:22:52.856Z,22.781372
2023-04-10T12:24:01.562Z,23.315125
2023-04-10T12:25:10.236Z,24.020081
2023-04-10T12:26:19.891Z,23.808594
2023-04-10T12:27:29.597Z,24.382629
2023-04-10T12:28:39.251Z,24.473267
2023-04-10T12:29:47.928Z,24.302063
2023-04-10T12:30:56.643Z,24.050293
2023-04-10T12:32:06.312Z,23.838806
2023-04-10T12:33:15.000Z,23.687744
2023-04-10T12:34:23.851Z,23.677673
2023-04-10T12:35:33.412Z,23.50647
2023-04-10T12:36:42.054Z,23.365479
2023-04-10T12:37:51.716Z,23.808594
2023-04-10T12:39:01.430Z,23.466187
2023-04-10T12:40:11.116Z,23.103638
2023-04-10T12:41:20.802Z,23.808594
2023-04-10T12:42:29.708Z,24.402771
2023-04-10T12:43:39.442Z,24.503479
2023-04-10T12:44:49.165Z,24.322205
2023-04-10T12:45:56.989Z,24.030151
2023-04-10T12:47:05.602Z,23.123779
2023-04-10T12:48:15.299Z,21.734009
2023-04-10T12:49:22.990Z,21.804504
2023-04-10T12:50:32.694Z,21.290894
2023-04-10T12:51:42.331Z,20.716858
2023-04-10T12:52:52.055Z,21.029053
2023-04-10T12:54:01.736Z,21.75415
2023-04-10T12:55:11.453Z,22.539673
2023-04-10T12:56:21.124Z,23.103638
2023-04-10T12:57:30.824Z,23.768311
2023-04-10T12:58:38.467Z,24.050293
2023-04-10T12:59:48.269Z,24.14093
2023-04-10T13:00:56.942Z,24.080505
2023-04-10T13:02:05.666Z,23.909302
2023-04-10T13:03:15.459Z,23.869019
2023-04-10T13:04:24.090Z,23.556824
2023-04-10T13:05:33.625Z,22.731018
2023-04-10T13:06:42.331Z,22.287903
2023-04-10T13:07:49.939Z,22.287903
2023-04-10T13:08:59.619Z,22.408752
2023-04-10T13:10:07.444Z,22.992859
2023-04-10T13:11:17.008Z,23.919373
2023-04-10T13:12:26.692Z,24.422913
2023-04-10T13:13:36.384Z,24.735107
2023-04-10T13:14:46.119Z,24.76532
2023-04-10T13:15:54.848Z,24.604187
2023-04-10T13:17:03.616Z,24.704895
2023-04-10T13:18:13.181Z,24.573975
2023-04-10T13:19:20.870Z,24.402771
2023-04-10T13:20:30.699Z,24.51355
2023-04-10T13:21:40.379Z,24.553833
2023-04-10T13:22:49.107Z,24.241638